Latest Coastal Weather Observations for Frankston (Ballam Park)

IDV60701

Issued at 8:31 pm EDT Wednesday 7 December 2022 (issued every 10 minutes, with the page automatically refreshed every 10 minutes)

About coastal observations | Map of coastal stations | Coastal observations for VIC | Marine services | Other Formats
Station Details ID: 086388 Name: FRANKSTON (BALLAM PARK) Lat: -38.15 Lon: 145.16 Height: 58.47 m
Data from the previous 72 hours. | See also: Recent months at Frankston (Ballam Park)
Date/Time
EDT
Wind Sea
Height
m
Swell Vis
km
Cloud Weather Temp
°C
Press
MSL
hPa
Rain since
9am
mm
Dir  Spd
kts
Gust
kts
Height
m
Period
s
Dir
07/08:30pm SW 6 14 - - - - - - - 11.7 1006.3 3.0
07/08:00pm W 5 14 - - - - - - - 12.3 1005.7 3.0
07/07:30pm SW 3 8 - - - - - - - 14.3 1004.8 0.2
07/07:00pm SW 4 10 - - - - - - - 16.1 1004.4 0.0
07/06:30pm WSW 3 8 - - - - - - - 17.4 1003.9 0.0
07/06:00pm WSW 5 13 - - - - - - - 18.0 1003.7 0.0
07/05:30pm SW 6 13 - - - - - - - 17.8 1003.9 0.0
07/05:00pm SW 5 12 - - - - - - - 18.2 1004.0 0.0
07/04:30pm SW 5 14 - - - - - - - 18.1 1004.0 0.0
07/04:00pm SW 5 11 - - - - - - - 18.4 1003.8 0.0
07/03:30pm WSW 4 9 - - - - - - - 18.3 1003.9 0.0
07/03:00pm WSW 4 11 - - - - - - - 18.6 1003.8 0.0
07/02:30pm WSW 3 8 - - - - - - - 18.4 1003.8 0.0
07/02:00pm SW 5 12 - - - - - - - 18.7 1004.0 0.0
07/01:30pm WSW 4 8 - - - - - - - 18.7 1004.1 0.0
07/01:00pm WSW 4 9 - - - - - - - 18.3 1004.0 0.0
07/12:30pm W 6 11 - - - - - - - 19.1 1004.0 0.0
07/12:00pm W 5 9 - - - - - - - 18.2 1004.0 0.0
07/11:30am W 5 10 - - - - - - - 19.0 1003.8 0.0
07/11:00am W 4 7 - - - - - - - 17.7 1004.0 0.0
07/10:30am W 3 7 - - - - - - - 17.9 1003.7 0.0
07/10:00am WNW 3 7 - - - - - - - 17.6 1003.7 0.0
07/09:30am WNW 3 6 - - - - - - - 17.2 1003.9 0.0
07/09:00am NW 2 4 - - - - - - - 16.1 1004.0 0.2
07/08:30am WNW 2 3 - - - - - - - 15.9 1003.9 0.2
07/08:00am CALM 0 2 - - - - - - - 15.4 1003.6 0.2
07/07:30am CALM 0 2 - - - - - - - 13.8 1003.6 0.2
07/07:00am CALM 0 0 - - - - - - - 12.2 1003.6 0.2
07/06:30am CALM 0 0 - - - - - - - 10.9 1003.6 0.2
07/06:00am CALM 0 0 - - - - - - - 10.9 1003.6 0.2
07/05:30am CALM 0 0 - - - - - - - 11.5 1003.5 0.2
07/05:00am CALM 0 0 - - - - - - - 11.9 1003.4 0.2
07/04:30am CALM 0 1 - - - - - - - 11.6 1003.5 0.2
07/04:00am CALM 0 0 - - - - - - - 11.7 1003.8 0.2
07/03:30am ESE 2 3 - - - - - - - 12.1 1003.9 0.2
07/03:00am ESE 1 3 - - - - - - - 12.1 1004.4 0.2
07/02:30am ESE 1 3 - - - - - - - 12.0 1004.9 0.2
07/02:00am SE 1 3 - - - - - - - 11.9 1005.1 0.2
07/01:30am SE 1 3 - - - - - - - 12.3 1005.3 0.2
07/01:00am SE 4 6 - - - - - - - 12.3 1005.4 0.2
07/12:30am SE 3 5 - - - - - - - 12.2 1005.9 0.2
07/12:00am SE 3 5 - - - - - - - 12.2 1006.4 0.2
 
Date/Time
EDT
Wind Sea
Height
m
Swell Vis
km
Cloud Weather Temp
°C
Press
MSL
hPa
Rain since
9am
mm
Dir  Spd
kts
Gust
kts
Height
m
Period
s
Dir
06/11:30pm SSE 4 7 - - - - - - - 12.4 1006.7 0.2
06/11:00pm SSE 4 6 - - - - - - - 12.4 1007.1 0.2
06/10:30pm SSE 5 8 - - - - - - - 12.7 1007.3 0.2
06/10:00pm SSE 4 8 - - - - - - - 12.9 1007.6 0.2
06/09:30pm SE 5 9 - - - - - - - 13.2 1007.5 0.2
06/09:00pm SSE 4 7 - - - - - - - 13.4 1007.4 0.2
06/08:30pm SE 5 9 - - - - - - - 14.1 1007.4 0.2
06/08:00pm SSE 6 11 - - - - - - - 14.8 1007.4 0.2
06/07:30pm SE 5 10 - - - - - - - 15.9 1007.5 0.2
06/07:00pm SE 6 10 - - - - - - - 16.7 1007.5 0.2
06/06:30pm SSE 6 11 - - - - - - - 17.2 1007.6 0.2
06/06:00pm SSE 5 9 - - - - - - - 17.6 1007.4 0.2
06/05:30pm SSE 7 10 - - - - - - - 18.6 1007.8 0.2
06/05:00pm SSE 6 9 - - - - - - - 18.4 1008.1 0.2
06/04:30pm S 6 11 - - - - - - - 18.4 1008.1 0.2
06/04:00pm ESE 5 10 - - - - - - - 19.2 1008.3 0.2
06/03:30pm SSE 6 10 - - - - - - - 18.9 1008.5 0.2
06/03:00pm SSE 4 7 - - - - - - - 18.5 1008.7 0.2
06/02:30pm SSW 4 8 - - - - - - - 18.1 1009.1 0.2
06/02:00pm SSE 4 6 - - - - - - - 19.7 1009.5 0.2
06/01:30pm SSE 3 7 - - - - - - - 18.3 1010.0 0.2
06/01:00pm SE 4 7 - - - - - - - 17.8 1010.3 0.2
06/12:30pm SE 4 8 - - - - - - - 17.5 1010.6 0.2
06/12:00pm SE 5 9 - - - - - - Recent precip. 17.2 1010.6 0.2
06/11:30am E 5 9 - - - - - - - 17.6 1010.7 0.2
06/11:00am ESE 6 10 - - - - - - - 17.6 1010.8 0.0
06/10:30am ESE 4 7 - - - - - - - 16.6 1011.2 0.0
06/10:00am E 4 7 - - - - - - - 15.6 1011.5 0.0
06/09:30am E 3 7 - - - - - - - 15.0 1011.7 0.0
06/09:00am E 5 9 - - - - - - - 14.1 1011.9 3.4
06/08:30am E 4 7 - - - - - - - 12.8 1011.9 3.4
06/08:00am ESE 4 9 - - - - - - - 12.2 1011.9 3.4
06/07:30am ESE 5 10 - - - - - - - 12.2 1011.7 3.2
06/07:00am ESE 2 4 - - - - - - - 12.3 1011.3 1.6
06/06:30am E 1 4 - - - - - - - 12.4 1011.2 1.2
06/06:00am E 3 6 - - - - - - Recent precip. 12.6 1011.0 1.2
06/05:30am ESE 2 5 - - - - - - - 12.9 1010.8 1.0
06/05:00am ESE 1 4 - - - - - - - 13.0 1010.8 1.0
06/04:30am SE 2 5 - - - - - - - 13.1 1010.9 1.0
06/04:00am SSE 3 6 - - - - - - - 12.9 1010.7 1.0
06/03:30am SSE 3 5 - - - - - - - 12.5 1010.6 1.0
06/03:00am SSE 3 5 - - - - - - - 12.7 1010.4 1.0
06/02:30am SE 3 7 - - - - - - - 13.0 1010.7 1.0
06/02:00am SSE 3 6 - - - - - - - 13.2 1010.9 1.0
06/01:30am S 3 6 - - - - - - - 13.5 1010.8 1.0
06/01:00am SSW 2 5 - - - - - - - 13.3 1011.0 1.0
06/12:30am SSW 3 7 - - - - - - - 13.3 1011.5 1.0
06/12:00am SSW 3 7 - - - - - - - 13.3 1011.8 1.0
 
Date/Time
EDT
Wind Sea
Height
m
Swell Vis
km
Cloud Weather Temp
°C
Press
MSL
hPa
Rain since
9am
mm
Dir  Spd
kts
Gust
kts
Height
m
Period
s
Dir
05/11:30pm SSW 4 8 - - - - - - - 13.2 1012.0 1.0
05/11:00pm SSW 3 6 - - - - - - - 13.1 1012.3 1.0
05/10:30pm SW 3 6 - - - - - - - 13.0 1012.5 1.0
05/10:00pm SSW 5 12 - - - - - - - 13.0 1012.4 1.0
05/09:30pm SSW 4 10 - - - - - - - 12.9 1012.3 1.0
05/09:00pm SW 6 12 - - - - - - - 12.9 1012.0 1.0
05/08:30pm SSW 5 13 - - - - - - - 12.8 1011.9 1.0
05/08:00pm SSW 6 13 - - - - - - - 12.8 1011.9 1.0
05/07:30pm SSW 6 17 - - - - - - - 13.4 1011.8 1.0
05/07:00pm SSW 7 15 - - - - - - - 14.4 1011.4 1.0
05/06:30pm SSW 7 13 - - - - - - - 14.8 1011.1 1.0
05/06:00pm SSW 6 12 - - - - - - - 15.4 1010.9 1.0
05/05:30pm SW 4 12 - - - - - - - 14.5 1010.8 1.0
05/05:00pm SW 6 12 - - - - - - - 14.5 1010.7 1.0
05/04:30pm SW 5 13 - - - - - - - 15.2 1010.7 0.8
05/04:00pm SW 7 17 - - - - - - - 16.3 1010.6 0.8
05/03:30pm SW 7 18 - - - - - - - 15.0 1010.8 0.8
05/03:00pm SW 5 11 - - - - - - Recent precip. 15.3 1010.6 0.8
05/02:30pm SW 4 15 - - - - - - - 16.1 1010.6 0.6
05/02:00pm SW 7 13 - - - - - - - 16.2 1010.6 0.6
05/01:30pm WSW 4 11 - - - - - - - 15.4 1010.8 0.6
05/01:00pm WSW 6 16 - - - - - - - 15.1 1010.7 0.6
05/12:30pm WSW 6 15 - - - - - - - 17.5 1010.4 0.2
05/12:00pm WSW 5 13 - - - - - - - 17.4 1010.0 0.2
05/11:30am SW 6 12 - - - - - - - 16.7 1009.9 0.2
05/11:00am SSW 6 12 - - - - - - - 15.7 1009.8 0.2
05/10:30am SSW 4 10 - - - - - - - 14.8 1009.6 0.2
05/10:00am SSW 5 13 - - - - - - - 14.9 1009.3 0.2
05/09:30am SSW 5 10 - - - - - - - 14.5 1009.0 0.2
05/09:00am SSW 4 9 - - - - - - - 15.0 1009.0 -
05/08:30am SW 4 10 - - - - - - - 15.3 1008.8 -
05/08:00am W 5 9 - - - - - - - 15.7 1008.6 -
05/07:30am SW 5 12 - - - - - - - 16.1 1007.9 -
05/07:00am W 3 8 - - - - - - - 16.1 1007.9 -
05/06:30am SW 3 8 - - - - - - - 16.2 1007.5 -
05/06:00am WSW 3 7 - - - - - - - 16.4 1007.4 -
05/05:30am WSW 3 7 - - - - - - - 16.6 1006.8 -
05/05:00am W 5 13 - - - - - - - 16.5 1006.4 -
05/04:30am W 8 14 - - - - - - - 17.0 1006.5 -
05/04:00am WNW 6 15 - - - - - - - 17.0 1006.1 -
05/03:30am W 3 7 - - - - - - - 16.8 1005.8 -
05/03:00am SW 3 9 - - - - - - - 17.0 1005.6 0.0
05/02:30am SW 3 8 - - - - - - - 17.1 1005.7 -
05/02:00am W 4 9 - - - - - - - 18.2 1005.5 -
05/01:30am W 4 9 - - - - - - - 18.7 1005.7 -
05/01:00am SSW 4 10 - - - - - - - 20.1 1005.5 -
05/12:30am SSW 6 13 - - - - - - - 21.9 1005.3 -
05/12:00am WSW 2 6 - - - - - - - 24.1 1004.2 -
 
Date/Time
EDT
Wind Sea
Height
m
Swell Vis
km
Cloud Weather Temp
°C
Press
MSL
hPa
Rain since
9am
mm
Dir  Spd
kts
Gust
kts
Height
m
Period
s
Dir
04/11:30pm NW 5 9 - - - - - - - 25.3 1004.0 -
04/11:00pm NNW 3 5 - - - - - - - 26.0 1003.7 -
04/10:30pm NNE 4 8 - - - - - - - 26.8 1003.8 -
04/10:00pm NE 4 7 - - - - - - - 26.8 1003.9 -
04/09:30pm E 2 4 - - - - - - - 25.4 1004.4 -
04/09:00pm ESE 1 3 - - - - - - - 25.6 1004.8 -

Other formats

Comma delimited format used in spreadsheet applications
http://www.bom.gov.au/fwo/IDV60701/IDV60701.94876.axf

JavaScript Object Notation format (JSON) in row-major order
http://www.bom.gov.au/fwo/IDV60701/IDV60701.94876.json

Data quality

Most of these data are generated automatically and are frequently updated. Quality checks on data are not normally performed. It is possible for incorrect values to appear. Refer to information at About Latest Weather Observations and please check the disclaimer before using these data.